Time;durP1;ratioP1;P1;durP2;ratioP2;P2;SDS_P1;SDS_P2;PMS_P1;PMS_P2;Temp;Humidity;BMP_temperature;BMP_pressure;BME280_temperature;BME280_humidity;BME280_pressure;Samples;Min_cycle;Max_cycle;Signal;HPM_P1;HPM_P2
2023/12/09 00:01:51;;;;;;;103.18;50.67;;;7.90;99.90;;;;;;4998508;28;20502;-73
2023/12/09 00:04:16;;;;;;;95.22;49.13;;;7.90;99.90;;;;;;5002835;28;20065;-73
2023/12/09 00:06:47;;;;;;;94.60;48.58;;;7.90;99.90;;;;;;5001427;28;20077;-73
2023/12/09 00:09:13;;;;;;;108.57;49.20;;;7.90;99.90;;;;;;4959389;28;20038;-73
2023/12/09 00:11:39;;;;;;;92.65;48.90;;;7.90;99.90;;;;;;5008601;28;20043;-73
2023/12/09 00:14:05;;;;;;;91.55;47.40;;;7.90;99.90;;;;;;5011716;28;20056;-73
2023/12/09 00:16:31;;;;;;;91.97;45.60;;;7.90;99.90;;;;;;4975021;28;20070;-73
2023/12/09 00:18:58;;;;;;;94.65;47.03;;;7.90;99.90;;;;;;4987925;28;20498;-73
2023/12/09 00:21:24;;;;;;;92.35;46.53;;;7.90;99.90;;;;;;5014192;28;20072;-73
2023/12/09 00:23:50;;;;;;;98.45;46.03;;;8.00;99.90;;;;;;4992564;28;20052;-73
2023/12/09 00:26:15;;;;;;;83.93;46.45;;;7.90;99.90;;;;;;5025481;28;20086;-73
2023/12/09 00:28:41;;;;;;;91.07;45.70;;;7.90;99.90;;;;;;4991718;28;20046;-73
2023/12/09 00:31:07;;;;;;;90.22;45.08;;;7.90;99.90;;;;;;4981764;28;20070;-75
2023/12/09 00:33:33;;;;;;;99.82;48.22;;;7.90;99.90;;;;;;4978026;28;20038;-73
2023/12/09 00:35:59;;;;;;;92.13;44.78;;;7.90;99.90;;;;;;4967652;28;20399;-72
2023/12/09 00:38:28;;;;;;;90.40;44.58;;;7.90;99.90;;;;;;5004360;28;20086;-73
2023/12/09 00:40:54;;;;;;;93.10;46.25;;;7.90;99.90;;;;;;4986625;28;20597;-73
2023/12/09 00:43:20;;;;;;;90.13;46.50;;;7.90;99.90;;;;;;5004132;28;20097;-73
2023/12/09 00:45:46;;;;;;;79.22;43.42;;;7.90;99.90;;;;;;4994409;28;20058;-73
2023/12/09 00:48:11;;;;;;;77.00;41.97;;;7.90;99.90;;;;;;4982227;28;20046;-72
2023/12/09 00:50:37;;;;;;;87.93;43.70;;;8.00;99.90;;;;;;4991106;28;20141;-73
2023/12/09 00:53:03;;;;;;;87.35;43.85;;;8.00;99.90;;;;;;5000315;28;20531;-73
2023/12/09 00:55:29;;;;;;;90.15;45.13;;;7.90;99.90;;;;;;4977603;28;20062;-73
2023/12/09 00:57:58;;;;;;;81.75;43.20;;;8.00;99.90;;;;;;4972577;28;20062;-73
2023/12/09 01:00:25;;;;;;;77.68;42.42;;;7.90;99.90;;;;;;4995278;28;20050;-73
2023/12/09 01:02:51;;;;;;;86.57;44.15;;;7.90;99.90;;;;;;4962323;28;20160;-73
2023/12/09 01:05:17;;;;;;;90.60;44.38;;;8.00;99.90;;;;;;4974640;28;20048;-72
2023/12/09 01:07:46;;;;;;;85.22;42.15;;;8.00;99.90;;;;;;4989095;28;20050;-73
2023/12/09 01:10:12;;;;;;;76.47;40.45;;;8.00;99.90;;;;;;4968977;28;20053;-73
2023/12/09 01:12:38;;;;;;;95.47;44.30;;;8.00;99.90;;;;;;4960690;28;20046;-74
2023/12/09 01:15:04;;;;;;;91.93;43.75;;;7.90;99.90;;;;;;4964718;28;20055;-73
2023/12/09 01:17:30;;;;;;;84.43;42.47;;;8.00;99.90;;;;;;4971385;28;20050;-73
2023/12/09 01:19:56;;;;;;;76.68;41.83;;;8.00;99.90;;;;;;4969600;28;20039;-73
2023/12/09 01:22:22;;;;;;;74.63;41.20;;;8.00;99.90;;;;;;4962926;28;20086;-73
2023/12/09 01:24:48;;;;;;;89.68;43.85;;;8.00;99.90;;;;;;4989667;28;20565;-73
2023/12/09 01:27:16;;;;;;;76.70;41.08;;;8.00;99.90;;;;;;4978954;28;20057;-73
2023/12/09 01:29:43;;;;;;;81.55;43.83;;;8.00;99.90;;;;;;5025601;28;20650;-74
2023/12/09 01:32:09;;;;;;;76.03;40.60;;;8.00;99.90;;;;;;5007548;28;20040;-74
2023/12/09 01:34:38;;;;;;;85.07;42.88;;;8.00;99.90;;;;;;4962148;28;20442;-73
2023/12/09 01:37:07;;;;;;;77.45;42.38;;;8.00;99.90;;;;;;4980740;28;20406;-73
2023/12/09 01:39:33;;;;;;;77.28;40.58;;;8.00;99.90;;;;;;4968978;28;20038;-74
2023/12/09 01:42:00;;;;;;;99.82;44.22;;;8.00;99.90;;;;;;5003537;28;20426;-74
2023/12/09 01:44:25;;;;;;;66.28;38.38;;;8.00;99.90;;;;;;5004191;28;20058;-74
2023/12/09 01:46:52;;;;;;;77.57;40.72;;;8.00;99.90;;;;;;4998831;28;20032;-73
2023/12/09 01:49:17;;;;;;;83.82;42.17;;;8.00;99.90;;;;;;5011526;28;20120;-73
2023/12/09 01:51:43;;;;;;;81.07;41.17;;;7.90;99.90;;;;;;4980373;28;20129;-73
2023/12/09 01:54:10;;;;;;;73.43;40.97;;;7.90;99.90;;;;;;4992282;28;20040;-73
2023/12/09 01:56:36;;;;;;;71.03;39.22;;;7.90;99.90;;;;;;5003260;28;20053;-73
2023/12/09 01:59:02;;;;;;;77.30;40.20;;;8.00;99.90;;;;;;4988480;28;20318;-73
2023/12/09 02:01:31;;;;;;;66.65;38.22;;;8.00;99.90;;;;;;4982957;28;20054;-73
2023/12/09 02:03:58;;;;;;;67.28;37.72;;;8.00;99.90;;;;;;4995756;28;20505;-72
2023/12/09 02:06:24;;;;;;;73.63;37.78;;;7.90;99.90;;;;;;4985939;28;20960;-72
2023/12/09 02:08:50;;;;;;;70.65;38.28;;;8.00;99.90;;;;;;4967778;28;20085;-72
2023/12/09 02:11:38;;;;;;;69.80;36.38;;;8.00;99.90;;;;;;4991193;28;20049;-73
2023/12/09 02:14:32;;;;;;;70.75;38.10;;;8.00;99.90;;;;;;4990157;28;20054;-72
2023/12/09 02:17:18;;;;;;;68.85;37.78;;;8.00;99.90;;;;;;5020121;28;20129;-72
2023/12/09 02:19:44;;;;;;;70.45;38.90;;;8.00;99.90;;;;;;5014363;28;20073;-72
2023/12/09 02:22:10;;;;;;;72.28;37.80;;;8.00;99.90;;;;;;4994542;28;20081;-72
2023/12/09 02:24:36;;;;;;;72.88;38.22;;;8.00;99.90;;;;;;4979249;28;20073;-73
2023/12/09 02:27:07;;;;;;;68.32;38.33;;;8.00;99.90;;;;;;5014388;28;20038;-73
2023/12/09 02:29:39;;;;;;;73.72;38.40;;;8.00;99.90;;;;;;4981952;28;20049;-73
2023/12/09 02:32:08;;;;;;;66.22;35.97;;;7.90;99.90;;;;;;4983606;28;20134;-73
2023/12/09 02:34:37;;;;;;;72.35;36.92;;;7.90;99.90;;;;;;4981238;28;20133;-73
2023/12/09 02:37:06;;;;;;;67.78;38.80;;;8.00;99.90;;;;;;4984133;28;20379;-73
2023/12/09 02:39:31;;;;;;;75.13;36.47;;;8.00;99.90;;;;;;4977041;28;20054;-73
2023/12/09 02:41:58;;;;;;;70.68;36.80;;;8.00;99.90;;;;;;4995973;28;20739;-73
2023/12/09 02:44:24;;;;;;;66.70;36.80;;;8.00;99.90;;;;;;4988547;28;20308;-73
2023/12/09 02:46:55;;;;;;;71.90;36.55;;;8.00;99.90;;;;;;4971984;28;20486;-73
2023/12/09 02:49:21;;;;;;;64.63;36.38;;;8.00;99.90;;;;;;4980735;28;20077;-73
2023/12/09 02:51:47;;;;;;;64.00;33.03;;;8.00;99.90;;;;;;5014713;28;20038;-73
2023/12/09 02:54:13;;;;;;;67.50;37.38;;;8.00;99.90;;;;;;4982600;28;20140;-73
2023/12/09 02:56:38;;;;;;;64.80;35.85;;;8.00;99.90;;;;;;4996781;28;20065;-73
2023/12/09 02:59:04;;;;;;;59.90;33.97;;;8.00;99.90;;;;;;5020702;28;20079;-73
2023/12/09 03:01:30;;;;;;;60.28;35.65;;;8.00;99.90;;;;;;4964803;28;20429;-73
2023/12/09 03:03:56;;;;;;;66.65;35.03;;;8.00;99.90;;;;;;4982472;28;20046;-73
2023/12/09 03:06:21;;;;;;;66.05;35.28;;;8.00;99.90;;;;;;4982250;28;20057;-73
2023/12/09 03:08:47;;;;;;;58.28;33.72;;;8.00;99.90;;;;;;4979531;28;20137;-72
2023/12/09 03:11:13;;;;;;;58.92;32.05;;;8.00;99.90;;;;;;4982284;28;20645;-73
2023/12/09 03:13:38;;;;;;;55.83;32.58;;;8.00;99.90;;;;;;4968233;28;20084;-75
2023/12/09 03:16:05;;;;;;;62.38;32.15;;;7.90;99.90;;;;;;4962678;28;20144;-75
2023/12/09 03:18:36;;;;;;;58.80;33.60;;;8.00;99.90;;;;;;4980372;28;20372;-75
2023/12/09 03:21:03;;;;;;;62.47;34.53;;;8.00;99.90;;;;;;4973972;28;20078;-75
2023/12/09 03:23:29;;;;;;;64.97;32.45;;;8.00;99.90;;;;;;4982406;28;20046;-75
2023/12/09 03:25:54;;;;;;;50.58;30.40;;;8.00;99.90;;;;;;4966461;28;20054;-75
2023/12/09 03:28:20;;;;;;;62.13;31.75;;;7.90;99.90;;;;;;4982443;28;20557;-75
2023/12/09 03:30:52;;;;;;;55.92;29.33;;;7.90;99.90;;;;;;4966016;28;20673;-75
2023/12/09 03:33:18;;;;;;;52.75;32.30;;;7.90;99.90;;;;;;4978281;28;20471;-75
2023/12/09 03:35:43;;;;;;;60.15;31.73;;;7.90;99.90;;;;;;4963693;28;20132;-75
2023/12/09 03:38:09;;;;;;;59.50;29.75;;;7.90;99.90;;;;;;4963532;28;20501;-75
2023/12/09 03:40:35;;;;;;;54.03;29.77;;;7.90;99.90;;;;;;4982659;28;20203;-76
2023/12/09 03:43:01;;;;;;;53.20;29.05;;;7.90;99.90;;;;;;4981223;28;20076;-75
2023/12/09 03:45:27;;;;;;;54.25;30.75;;;7.90;99.90;;;;;;4977263;28;20469;-75
2023/12/09 03:47:53;;;;;;;51.95;28.42;;;7.90;99.90;;;;;;4979437;28;20053;-75
2023/12/09 03:50:18;;;;;;;49.92;27.30;;;7.90;99.90;;;;;;4981943;28;20050;-75
2023/12/09 03:52:44;;;;;;;42.70;27.08;;;7.90;99.90;;;;;;4998131;28;20046;-75
2023/12/09 03:55:10;;;;;;;49.92;27.23;;;7.90;99.90;;;;;;4967637;28;20121;-75
2023/12/09 03:57:36;;;;;;;50.10;27.60;;;7.90;99.90;;;;;;4982459;28;20486;-75
2023/12/09 04:00:04;;;;;;;53.10;27.65;;;7.90;99.90;;;;;;4977523;28;20042;-75
2023/12/09 04:02:30;;;;;;;46.95;25.58;;;7.90;99.90;;;;;;4981463;28;20439;-76
2023/12/09 04:04:56;;;;;;;42.17;25.17;;;7.90;99.90;;;;;;4981006;28;20042;-76
2023/12/09 04:07:22;;;;;;;49.53;26.20;;;7.90;99.90;;;;;;4982318;28;20103;-75
2023/12/09 04:09:48;;;;;;;47.92;25.08;;;7.90;99.90;;;;;;4966505;28;20429;-75
2023/12/09 04:12:14;;;;;;;47.13;25.40;;;7.90;99.90;;;;;;4966349;28;20049;-75
2023/12/09 04:14:40;;;;;;;45.25;24.95;;;7.90;99.90;;;;;;4967161;28;20053;-75
2023/12/09 04:17:06;;;;;;;45.95;25.83;;;7.90;99.90;;;;;;4982004;28;20049;-72
2023/12/09 04:19:32;;;;;;;52.22;24.65;;;7.90;99.90;;;;;;5015818;28;20042;-72
2023/12/09 04:21:58;;;;;;;48.35;25.10;;;7.90;99.90;;;;;;4980488;28;20540;-72
2023/12/09 04:24:24;;;;;;;49.28;24.75;;;7.80;99.90;;;;;;4962776;28;20142;-72
2023/12/09 04:26:49;;;;;;;47.47;24.77;;;7.80;99.90;;;;;;4977767;28;20462;-72
2023/12/09 04:29:15;;;;;;;49.20;24.95;;;7.90;99.90;;;;;;5014360;28;20042;-72
2023/12/09 04:31:44;;;;;;;46.72;24.27;;;7.90;99.90;;;;;;4976500;28;20046;-72
2023/12/09 04:34:10;;;;;;;51.75;23.92;;;7.90;99.90;;;;;;4961501;28;20042;-72
2023/12/09 04:36:35;;;;;;;46.60;23.88;;;7.90;99.90;;;;;;4981937;28;20446;-72
2023/12/09 04:39:01;;;;;;;45.70;24.90;;;7.90;99.90;;;;;;4965182;28;20457;-72
2023/12/09 04:41:27;;;;;;;42.00;24.25;;;7.90;99.90;;;;;;4978798;28;20047;-72
2023/12/09 04:43:52;;;;;;;49.15;23.48;;;7.90;99.90;;;;;;5012678;28;20043;-72
2023/12/09 04:46:18;;;;;;;45.10;22.48;;;7.90;99.90;;;;;;4983912;28;20104;-72
2023/12/09 04:48:44;;;;;;;44.40;22.98;;;7.80;99.90;;;;;;4966927;28;20366;-72
2023/12/09 04:51:10;;;;;;;44.80;22.80;;;7.80;99.90;;;;;;4966248;28;20054;-72
2023/12/09 04:53:36;;;;;;;49.78;23.85;;;7.90;99.90;;;;;;4996270;28;20046;-72
2023/12/09 04:56:02;;;;;;;46.70;23.42;;;7.90;99.90;;;;;;4961677;28;20042;-72
2023/12/09 04:58:28;;;;;;;40.30;21.20;;;7.90;99.90;;;;;;4965336;28;20047;-72
2023/12/09 05:00:54;;;;;;;50.45;23.73;;;7.90;99.90;;;;;;4981450;28;20108;-72
2023/12/09 05:03:20;;;;;;;42.72;22.25;;;7.80;99.90;;;;;;5012385;28;20134;-72
2023/12/09 05:05:46;;;;;;;42.38;22.25;;;7.90;99.90;;;;;;4981656;28;20133;-73
2023/12/09 05:08:11;;;;;;;48.28;21.48;;;7.90;99.90;;;;;;4965573;28;20455;-72
2023/12/09 05:10:37;;;;;;;42.67;22.08;;;7.90;99.90;;;;;;4982624;28;20046;-72
2023/12/09 05:13:03;;;;;;;41.65;22.67;;;7.90;99.90;;;;;;4986450;28;20469;-72
2023/12/09 05:15:29;;;;;;;52.83;22.67;;;7.80;99.90;;;;;;4984727;28;20058;-72
2023/12/09 05:17:55;;;;;;;49.80;22.42;;;7.80;99.90;;;;;;5008453;28;20107;-72
2023/12/09 05:20:22;;;;;;;40.75;21.52;;;7.90;99.90;;;;;;4985118;28;20069;-72
2023/12/09 05:22:47;;;;;;;47.22;22.30;;;7.90;99.90;;;;;;4979846;28;20625;-72
2023/12/09 05:25:14;;;;;;;44.40;21.70;;;7.90;99.90;;;;;;4983967;28;20047;-72
2023/12/09 05:27:40;;;;;;;45.78;21.77;;;7.80;99.90;;;;;;4969472;28;20076;-72
2023/12/09 05:30:06;;;;;;;41.70;21.35;;;7.80;99.90;;;;;;4984147;28;20038;-72
2023/12/09 05:32:32;;;;;;;39.78;20.92;;;7.80;99.90;;;;;;4985034;28;20088;-70
2023/12/09 05:34:57;;;;;;;44.42;20.45;;;7.90;99.90;;;;;;4984658;28;20529;-71
2023/12/09 05:37:29;;;;;;;38.70;21.50;;;7.80;99.90;;;;;;4997217;28;20068;-72
2023/12/09 05:39:55;;;;;;;48.55;22.30;;;7.80;99.90;;;;;;4969512;28;20400;-71
2023/12/09 05:42:21;;;;;;;48.67;22.55;;;7.80;99.90;;;;;;4967963;28;20050;-71
2023/12/09 05:44:46;;;;;;;44.28;22.05;;;7.80;99.90;;;;;;4983244;28;20042;-72
2023/12/09 05:47:12;;;;;;;47.97;24.25;;;7.90;99.90;;;;;;4984132;28;20134;-75
2023/12/09 05:49:38;;;;;;;44.85;22.38;;;7.90;99.90;;;;;;4990589;28;20046;-76
2023/12/09 05:52:04;;;;;;;42.40;22.85;;;7.80;99.90;;;;;;5000765;28;20108;-76
2023/12/09 05:54:31;;;;;;;46.03;23.85;;;7.80;99.90;;;;;;4992912;28;21167;-76
2023/12/09 05:56:57;;;;;;;50.78;24.80;;;7.80;99.90;;;;;;4958185;28;20046;-76
2023/12/09 05:59:23;;;;;;;48.40;24.92;;;7.80;99.90;;;;;;5013453;28;20379;-76
2023/12/09 06:01:49;;;;;;;47.95;25.65;;;7.80;99.90;;;;;;4967685;28;20038;-75
2023/12/09 06:04:15;;;;;;;53.35;26.25;;;7.80;99.90;;;;;;4968316;28;20047;-76
2023/12/09 06:06:40;;;;;;;49.10;24.75;;;7.70;99.90;;;;;;4981476;28;20062;-76
2023/12/09 06:09:06;;;;;;;45.00;25.33;;;7.70;99.90;;;;;;4983138;28;20035;-76
2023/12/09 06:11:32;;;;;;;46.95;25.85;;;7.70;99.90;;;;;;4968144;28;20137;-76
2023/12/09 06:13:58;;;;;;;49.42;25.75;;;7.70;99.90;;;;;;4957868;28;20513;-76
2023/12/09 06:16:23;;;;;;;44.10;24.90;;;7.70;99.90;;;;;;4978045;28;20057;-76
2023/12/09 06:18:49;;;;;;;45.55;23.33;;;7.70;99.90;;;;;;5014360;28;20121;-76
2023/12/09 06:21:33;;;;;;;46.38;23.40;;;7.70;99.90;;;;;;4983726;28;20050;-71
2023/12/09 06:23:59;;;;;;;38.45;22.48;;;7.60;99.90;;;;;;4966365;28;20107;-72
2023/12/09 06:26:25;;;;;;;43.40;21.92;;;7.60;99.90;;;;;;5017690;28;20054;-71
2023/12/09 06:28:51;;;;;;;38.63;22.88;;;7.70;99.90;;;;;;4982032;28;20038;-71
2023/12/09 06:31:17;;;;;;;38.35;21.95;;;7.60;99.90;;;;;;4968500;28;20142;-71
2023/12/09 06:33:43;;;;;;;34.17;20.38;;;7.60;99.90;;;;;;4967523;28;20117;-71
2023/12/09 06:36:08;;;;;;;42.47;20.90;;;7.60;99.90;;;;;;4967870;28;20126;-71
2023/12/09 06:38:39;;;;;;;35.58;19.83;;;7.60;99.90;;;;;;4984349;28;20069;-71
2023/12/09 06:41:06;;;;;;;41.42;21.60;;;7.50;99.90;;;;;;4985321;28;20128;-71
2023/12/09 06:43:32;;;;;;;40.97;22.08;;;7.50;99.90;;;;;;5010144;28;20532;-71
2023/12/09 06:46:01;;;;;;;38.28;20.95;;;7.50;99.90;;;;;;5001058;28;20050;-71
2023/12/09 06:48:29;;;;;;;43.83;20.73;;;7.50;99.90;;;;;;4982739;28;20046;-71
2023/12/09 06:50:56;;;;;;;42.17;21.05;;;7.50;99.90;;;;;;5007804;28;20132;-71
2023/12/09 06:53:21;;;;;;;46.17;21.38;;;7.50;99.90;;;;;;4982177;28;20305;-71
2023/12/09 06:55:47;;;;;;;41.85;20.70;;;7.30;99.90;;;;;;4997598;28;20073;-72
2023/12/09 06:58:14;;;;;;;42.97;20.88;;;7.40;99.90;;;;;;5004584;28;20160;-71
2023/12/09 07:00:40;;;;;;;38.67;20.13;;;7.40;99.90;;;;;;4994478;28;20050;-71
2023/12/09 07:03:07;;;;;;;40.30;21.27;;;7.40;99.90;;;;;;4994315;28;20044;-70
2023/12/09 07:05:33;;;;;;;37.60;20.27;;;7.40;99.90;;;;;;4965404;28;20498;-70
2023/12/09 07:07:59;;;;;;;38.63;20.15;;;7.40;99.90;;;;;;4980365;28;20131;-70
2023/12/09 07:10:25;;;;;;;40.53;21.27;;;7.40;99.90;;;;;;4993349;28;20044;-69
2023/12/09 07:12:50;;;;;;;32.97;19.80;;;7.40;99.90;;;;;;4983713;28;20528;-73
2023/12/09 07:15:16;;;;;;;44.00;21.33;;;7.40;99.90;;;;;;5043199;28;20054;-70
2023/12/09 07:17:42;;;;;;;38.42;21.00;;;7.40;99.90;;;;;;4965696;28;20038;-70
2023/12/09 07:20:09;;;;;;;36.25;19.63;;;7.30;99.90;;;;;;5002261;28;20050;-70
2023/12/09 07:22:35;;;;;;;36.50;20.75;;;7.30;99.90;;;;;;5035974;28;20042;-71
2023/12/09 07:25:01;;;;;;;39.80;21.25;;;7.30;99.90;;;;;;4965183;28;20049;-70
2023/12/09 07:27:26;;;;;;;38.85;19.55;;;7.30;99.90;;;;;;4978707;28;20057;-70
2023/12/09 07:29:52;;;;;;;36.13;19.40;;;7.30;99.90;;;;;;4963801;28;20700;-70
2023/12/09 07:32:21;;;;;;;35.30;18.67;;;7.40;99.90;;;;;;4983568;28;20057;-71
2023/12/09 07:34:46;;;;;;;36.13;19.42;;;7.30;99.90;;;;;;5001856;28;20498;-70
2023/12/09 07:37:14;;;;;;;35.38;19.15;;;7.30;99.90;;;;;;5008400;28;20088;-70
2023/12/09 07:39:40;;;;;;;39.72;19.65;;;7.30;99.90;;;;;;4984941;28;20042;-70
2023/12/09 07:42:06;;;;;;;35.70;17.42;;;7.30;99.90;;;;;;4965446;28;20397;-71
2023/12/09 07:44:32;;;;;;;35.40;17.25;;;7.30;99.90;;;;;;5045378;28;20044;-71
2023/12/09 07:46:57;;;;;;;33.10;16.42;;;7.30;99.90;;;;;;4991917;28;20043;-70
2023/12/09 07:49:23;;;;;;;34.75;16.10;;;7.30;99.90;;;;;;5004643;28;20298;-70
2023/12/09 07:51:49;;;;;;;31.48;14.90;;;7.30;99.90;;;;;;4979847;28;20133;-70
2023/12/09 07:54:15;;;;;;;35.97;14.95;;;7.30;99.90;;;;;;4967778;28;20038;-72
2023/12/09 07:56:40;;;;;;;29.85;15.70;;;7.40;99.90;;;;;;4995596;28;20050;-71
2023/12/09 07:59:07;;;;;;;30.90;15.30;;;7.30;99.90;;;;;;4973189;28;20034;-70
2023/12/09 08:01:34;;;;;;;30.75;14.50;;;7.30;99.90;;;;;;4991192;28;20061;-71
2023/12/09 08:04:02;;;;;;;36.45;14.45;;;7.30;99.90;;;;;;4981266;28;20093;-76
2023/12/09 08:06:28;;;;;;;28.70;14.25;;;7.40;99.90;;;;;;4994372;28;20053;-77
2023/12/09 08:08:54;;;;;;;24.80;12.38;;;7.30;99.90;;;;;;4973529;28;20430;-79
2023/12/09 08:11:20;;;;;;;28.67;13.13;;;7.30;99.90;;;;;;4979619;28;20093;-76
2023/12/09 08:13:46;;;;;;;24.05;12.40;;;7.30;99.90;;;;;;4984627;28;20047;-76
2023/12/09 08:16:13;;;;;;;28.80;13.10;;;7.30;99.90;;;;;;4996896;28;20133;-77
2023/12/09 08:18:39;;;;;;;24.30;12.50;;;7.30;99.90;;;;;;4979546;28;20407;-77
2023/12/09 08:21:05;;;;;;;28.75;13.20;;;7.30;99.90;;;;;;4994869;28;20105;-77
2023/12/09 08:23:31;;;;;;;25.10;11.05;;;7.30;99.90;;;;;;5028029;28;20123;-77
2023/12/09 08:25:56;;;;;;;23.95;11.77;;;7.30;99.90;;;;;;5001810;28;20468;-77
2023/12/09 08:28:22;;;;;;;28.88;11.13;;;7.30;99.90;;;;;;4981315;28;20046;-77
2023/12/09 08:30:48;;;;;;;32.08;10.65;;;7.30;99.90;;;;;;4987668;28;20387;-77
2023/12/09 08:33:14;;;;;;;26.98;10.73;;;7.20;99.90;;;;;;4987581;28;20034;-78
2023/12/09 08:35:39;;;;;;;22.85;10.15;;;7.30;99.90;;;;;;4979840;28;20141;-78
2023/12/09 08:38:05;;;;;;;31.92;10.50;;;7.30;99.90;;;;;;4992237;28;20069;-77
2023/12/09 08:40:31;;;;;;;27.92;10.52;;;7.20;99.90;;;;;;4987982;28;20053;-77
2023/12/09 08:42:57;;;;;;;25.02;10.20;;;7.20;99.90;;;;;;5000220;28;20108;-78
2023/12/09 08:45:23;;;;;;;22.85;10.45;;;7.20;99.90;;;;;;4971192;28;20125;-78
2023/12/09 08:47:49;;;;;;;21.10;9.93;;;7.20;99.90;;;;;;4996480;28;20052;-77
2023/12/09 08:50:15;;;;;;;29.15;9.23;;;7.20;99.90;;;;;;5001156;28;20419;-78
2023/12/09 08:52:41;;;;;;;22.50;9.25;;;7.20;99.90;;;;;;4983097;28;20038;-77
2023/12/09 08:55:07;;;;;;;25.88;9.55;;;7.20;99.90;;;;;;4985583;28;20647;-77
2023/12/09 08:57:36;;;;;;;23.75;8.82;;;7.20;99.90;;;;;;5010715;28;20535;-78
2023/12/09 09:00:07;;;;;;;22.75;8.48;;;7.10;99.90;;;;;;4992654;28;20038;-77
2023/12/09 09:02:32;;;;;;;22.35;8.55;;;7.20;99.90;;;;;;5041586;27;20080;-78
2023/12/09 09:04:58;;;;;;;21.92;9.05;;;7.20;99.90;;;;;;5007573;28;20044;-77
2023/12/09 09:07:24;;;;;;;24.27;8.25;;;7.10;99.90;;;;;;5001358;28;20050;-77
2023/12/09 09:09:50;;;;;;;26.48;8.60;;;7.20;99.90;;;;;;4981541;28;20099;-76
2023/12/09 09:12:15;;;;;;;21.13;7.32;;;7.10;99.90;;;;;;4979878;28;20486;-77
2023/12/09 09:14:41;;;;;;;20.73;7.63;;;7.20;99.90;;;;;;5006945;28;20068;-76
2023/12/09 09:17:07;;;;;;;23.98;8.52;;;7.10;99.90;;;;;;4979475;28;20051;-77
2023/12/09 09:19:32;;;;;;;20.77;7.25;;;7.10;99.90;;;;;;4998492;28;20066;-77
2023/12/09 09:21:58;;;;;;;19.77;7.20;;;7.10;99.90;;;;;;5030182;28;20099;-76
2023/12/09 09:24:24;;;;;;;26.98;8.35;;;7.20;99.90;;;;;;5040890;27;20419;-76
2023/12/09 09:26:50;;;;;;;19.50;7.25;;;7.20;99.90;;;;;;4992213;28;20050;-77
2023/12/09 09:29:16;;;;;;;19.13;7.43;;;7.20;99.90;;;;;;4983533;28;20498;-76
2023/12/09 09:31:42;;;;;;;20.65;7.30;;;7.20;99.90;;;;;;4999744;28;20047;-76
2023/12/09 09:34:07;;;;;;;21.92;6.57;;;7.20;99.90;;;;;;4969764;28;20042;-76
2023/12/09 09:36:33;;;;;;;18.48;6.55;;;7.20;99.90;;;;;;5016887;28;20050;-76
2023/12/09 09:38:59;;;;;;;22.77;7.20;;;7.30;99.90;;;;;;5030504;27;20057;-76
2023/12/09 09:41:32;;;;;;;21.55;7.07;;;7.40;99.90;;;;;;5019008;28;20071;-76
2023/12/09 09:44:11;;;;;;;14.13;5.30;;;7.30;99.90;;;;;;4998063;28;20087;-76
2023/12/09 09:46:38;;;;;;;17.05;6.28;;;7.30;99.90;;;;;;5022243;28;20126;-70
2023/12/09 09:49:05;;;;;;;19.63;5.60;;;7.30;99.90;;;;;;4980851;28;20041;-70
2023/12/09 09:51:32;;;;;;;19.70;5.80;;;7.30;99.90;;;;;;5013031;28;20103;-70
2023/12/09 09:54:09;;;;;;;18.88;6.18;;;7.40;99.90;;;;;;4968390;28;20410;-70
2023/12/09 09:56:36;;;;;;;18.17;5.80;;;7.40;99.90;;;;;;4985919;28;20050;-70
2023/12/09 09:59:03;;;;;;;19.98;5.75;;;7.50;99.90;;;;;;5039858;27;20038;-70
2023/12/09 10:01:32;;;;;;;16.23;5.25;;;7.40;99.90;;;;;;4983712;28;20046;-71
2023/12/09 10:03:58;;;;;;;17.23;5.25;;;7.50;99.90;;;;;;4987241;28;20061;-70
2023/12/09 10:06:24;;;;;;;20.13;5.57;;;7.50;99.90;;;;;;5017674;28;20261;-70
2023/12/09 10:08:51;;;;;;;14.90;5.00;;;7.50;99.90;;;;;;4989159;28;20150;-70
2023/12/09 10:11:19;;;;;;;12.15;4.63;;;7.50;99.90;;;;;;5015560;28;20053;-70
2023/12/09 10:13:45;;;;;;;17.02;5.35;;;7.50;99.90;;;;;;4983074;28;20053;-70
2023/12/09 10:16:11;;;;;;;15.95;5.13;;;7.50;99.90;;;;;;5002355;28;20475;-70
2023/12/09 10:18:37;;;;;;;13.68;4.53;;;7.60;99.90;;;;;;4985697;28;20045;-70
2023/12/09 10:21:04;;;;;;;21.58;5.40;;;7.60;99.90;;;;;;4976676;28;20456;-70
2023/12/09 10:23:30;;;;;;;17.30;5.20;;;7.60;99.90;;;;;;5022345;28;20050;-70
2023/12/09 10:25:58;;;;;;;15.57;5.25;;;7.60;99.90;;;;;;4992386;28;20042;-70
2023/12/09 10:28:24;;;;;;;15.57;4.70;;;7.60;99.90;;;;;;4982352;28;20125;-70
2023/12/09 10:30:50;;;;;;;19.20;5.13;;;7.60;99.90;;;;;;4998790;28;20058;-70
2023/12/09 10:33:17;;;;;;;18.65;4.47;;;7.70;99.90;;;;;;4980748;28;20035;-70
2023/12/09 10:35:43;;;;;;;12.57;4.30;;;7.70;99.90;;;;;;4981543;28;20053;-70
2023/12/09 10:38:09;;;;;;;14.02;4.47;;;7.70;99.90;;;;;;5027599;27;20414;-70
2023/12/09 10:40:34;;;;;;;17.73;4.80;;;7.70;99.90;;;;;;5036326;28;20105;-71
2023/12/09 10:43:07;;;;;;;13.05;4.75;;;7.70;99.90;;;;;;4992552;28;20421;-69
2023/12/09 10:45:32;;;;;;;14.05;4.53;;;7.70;99.90;;;;;;5011224;28;20050;-69
2023/12/09 10:47:58;;;;;;;12.95;4.65;;;7.70;99.90;;;;;;4985800;28;20099;-69
2023/12/09 10:50:24;;;;;;;12.35;4.05;;;7.70;99.90;;;;;;4972281;28;20146;-69
2023/12/09 10:52:49;;;;;;;14.02;4.38;;;7.80;99.90;;;;;;4985718;28;20924;-69
2023/12/09 10:55:15;;;;;;;12.40;4.75;;;7.70;99.90;;;;;;4980223;28;20073;-69
2023/12/09 10:57:43;;;;;;;15.75;4.40;;;7.80;99.90;;;;;;4979387;28;20054;-70
2023/12/09 11:00:14;;;;;;;12.95;5.18;;;7.80;99.90;;;;;;4966070;28;20084;-70
2023/12/09 11:02:40;;;;;;;11.32;4.10;;;7.80;99.90;;;;;;4977823;28;20541;-70
2023/12/09 11:05:09;;;;;;;11.43;4.15;;;7.90;99.90;;;;;;5004097;28;20402;-71
2023/12/09 11:07:36;;;;;;;14.45;5.07;;;7.90;99.90;;;;;;5024888;28;20409;-70
2023/12/09 11:10:03;;;;;;;13.50;4.82;;;7.90;99.90;;;;;;4980209;28;20042;-70
2023/12/09 11:12:34;;;;;;;12.43;4.32;;;7.90;99.90;;;;;;5013233;28;20085;-71
2023/12/09 11:15:19;;;;;;;13.30;5.25;;;7.90;99.90;;;;;;5011316;28;20044;-70
2023/12/09 11:17:45;;;;;;;12.90;5.38;;;8.00;99.90;;;;;;4997062;28;20095;-70
2023/12/09 11:20:14;;;;;;;12.63;5.22;;;8.00;99.90;;;;;;5003766;28;20593;-70
2023/12/09 11:22:41;;;;;;;15.00;4.40;;;8.00;99.90;;;;;;4968384;28;20489;-70
2023/12/09 11:25:08;;;;;;;13.45;5.60;;;8.00;99.90;;;;;;5051205;27;20110;-70
2023/12/09 11:27:36;;;;;;;11.15;5.28;;;8.00;99.90;;;;;;5018469;28;20078;-70
2023/12/09 11:30:02;;;;;;;12.43;4.80;;;8.00;99.90;;;;;;4981084;28;20050;-70
2023/12/09 11:32:29;;;;;;;15.60;5.10;;;8.00;99.90;;;;;;4965984;28;20110;-70
2023/12/09 11:34:57;;;;;;;13.75;5.10;;;8.00;99.90;;;;;;5005778;28;20036;-70
2023/12/09 11:37:26;;;;;;;11.43;4.68;;;8.00;99.90;;;;;;4979573;28;20148;-70
2023/12/09 11:39:54;;;;;;;13.02;5.22;;;8.00;99.90;;;;;;5009654;28;21163;-70
2023/12/09 11:42:21;;;;;;;12.77;4.50;;;8.00;99.90;;;;;;4981624;28;20099;-70
2023/12/09 11:44:47;;;;;;;12.57;4.38;;;8.00;99.90;;;;;;4995988;28;20454;-70
2023/12/09 11:47:14;;;;;;;9.20;4.18;;;8.00;99.90;;;;;;5031880;27;20050;-70
2023/12/09 11:49:41;;;;;;;11.38;4.28;;;8.10;99.90;;;;;;4966572;28;20046;-72
2023/12/09 11:52:08;;;;;;;12.90;4.45;;;8.10;99.90;;;;;;4997221;28;20082;-70
2023/12/09 11:54:34;;;;;;;14.73;4.93;;;8.10;99.90;;;;;;4969492;28;20046;-70
2023/12/09 11:57:00;;;;;;;15.60;4.55;;;8.10;99.90;;;;;;5032575;28;20055;-70
2023/12/09 11:59:25;;;;;;;11.15;4.40;;;8.00;99.90;;;;;;5016383;28;20122;-70
2023/12/09 12:01:51;;;;;;;10.25;4.30;;;8.10;99.90;;;;;;5023325;28;20491;-70
2023/12/09 12:04:17;;;;;;;11.27;3.78;;;8.10;99.90;;;;;;5025122;28;20118;-69
2023/12/09 12:06:43;;;;;;;16.08;4.20;;;8.10;99.90;;;;;;5014964;28;20075;-69
2023/12/09 12:09:09;;;;;;;10.05;4.03;;;8.10;99.90;;;;;;5017589;28;20137;-70
2023/12/09 12:11:35;;;;;;;12.95;3.97;;;8.10;99.90;;;;;;5041924;28;20444;-70
2023/12/09 12:14:01;;;;;;;11.38;3.92;;;8.20;99.90;;;;;;5015599;28;20046;-70
2023/12/09 12:16:26;;;;;;;13.02;4.30;;;8.20;99.90;;;;;;5020675;28;20085;-70
2023/12/09 12:18:55;;;;;;;13.23;4.70;;;8.20;99.90;;;;;;4981741;28;20417;-71
2023/12/09 12:21:21;;;;;;;10.15;3.83;;;8.20;99.90;;;;;;4981127;28;20490;-71
2023/12/09 12:23:54;;;;;;;10.15;3.65;;;8.20;99.90;;;;;;5035261;27;20069;-71
2023/12/09 12:26:21;;;;;;;12.35;3.85;;;8.30;99.90;;;;;;5050304;28;20031;-71
2023/12/09 12:28:49;;;;;;;12.40;4.18;;;8.30;99.90;;;;;;5033014;28;20042;-70
2023/12/09 12:31:15;;;;;;;9.07;3.63;;;8.30;99.90;;;;;;4994476;28;20367;-69
2023/12/09 12:33:41;;;;;;;11.18;3.80;;;8.30;99.90;;;;;;5005592;28;20049;-69
2023/12/09 12:36:07;;;;;;;9.95;3.70;;;8.30;99.90;;;;;;4999732;28;20050;-70
2023/12/09 12:38:36;;;;;;;10.63;3.63;;;8.30;99.90;;;;;;4989841;28;20050;-70